createdAt,value
2022-10-06T00:03:39.880Z,70.22951
2022-10-06T00:08:41.523Z,62.91892
2022-10-06T00:13:43.084Z,62.46154
2022-10-06T00:18:44.719Z,65.25984
2022-10-06T00:23:46.310Z,75.06383
2022-10-06T00:28:48.008Z,72.87029
2022-10-06T00:33:49.763Z,68.19355
2022-10-06T00:38:51.368Z,65.02161
2022-10-06T00:43:52.984Z,63.84436
2022-10-06T00:48:54.636Z,66.46521
2022-10-06T00:53:56.247Z,68.44444
2022-10-06T00:58:57.858Z,69.97137
2022-10-06T01:03:59.364Z,68.94929
2022-10-06T01:09:00.966Z,77.91304
2022-10-06T01:14:02.541Z,69.20325
2022-10-06T01:19:04.099Z,72.06653
2022-10-06T01:24:05.736Z,89.62648
2022-10-06T01:29:07.369Z,73.41176
2022-10-06T01:34:09.009Z,66.22222
2022-10-06T01:39:10.626Z,72.60125
2022-10-06T01:44:12.305Z,69.71429
2022-10-06T01:49:13.906Z,65.25984
2022-10-06T01:54:15.538Z,65.9802
2022-10-06T01:59:17.140Z,75.34328
2022-10-06T02:04:18.797Z,75.34328
2022-10-06T02:09:20.435Z,71.01031
2022-10-06T02:14:22.193Z,69.71429
2022-10-06T02:19:23.837Z,71.80083
2022-10-06T02:24:25.450Z,69.20325
2022-10-06T02:29:27.082Z,65.9802
2022-10-06T02:34:28.709Z,66.46521
2022-10-06T02:39:30.330Z,72.87029
2022-10-06T02:44:31.994Z,77.62256
2022-10-06T02:49:33.571Z,74.23256
2022-10-06T02:54:35.173Z,70.22951
2022-10-06T02:59:36.765Z,69.45825
2022-10-06T03:04:38.356Z,71.53623
2022-10-06T03:09:40.036Z,75.06383
2022-10-06T03:14:41.636Z,79.98234
2022-10-06T03:19:43.240Z,71.80083
2022-10-06T03:24:44.850Z,69.45825
2022-10-06T03:29:46.426Z,67.94366
2022-10-06T03:34:48.035Z,72.87029
2022-10-06T03:39:49.754Z,69.20325
2022-10-06T03:44:51.356Z,68.44444
2022-10-06T03:49:52.948Z,67.44689
2022-10-06T03:54:54.518Z,70.74897
2022-10-06T03:59:56.115Z,71.80083
2022-10-06T04:04:57.722Z,69.20325
2022-10-06T04:09:59.299Z,67.94366
2022-10-06T04:15:01.000Z,67.44689
2022-10-06T04:20:02.686Z,73.95781
2022-10-06T04:25:04.338Z,79.98234
2022-10-06T04:30:05.887Z,73.14046
2022-10-06T04:35:07.511Z,69.71429
2022-10-06T04:40:09.107Z,81.80761
2022-10-06T04:45:10.699Z,79.98234
2022-10-06T04:50:12.265Z,76.75862
2022-10-06T04:55:13.847Z,76.47312
2022-10-06T05:00:15.426Z,74.78556
2022-10-06T05:05:17.028Z,92.43373
2022-10-06T05:10:18.625Z,86.92343
2022-10-06T05:15:20.252Z,81.5
2022-10-06T05:20:21.809Z,88.60094
2022-10-06T05:25:23.449Z,122.03468
2022-10-06T05:30:25.077Z,109.14745
2022-10-06T05:35:26.680Z,121.52161
2022-10-06T05:40:28.307Z,132.3792
2022-10-06T05:45:29.941Z,105.67979
2022-10-06T05:50:31.569Z,106.10526
2022-10-06T05:55:33.223Z,93.87835
2022-10-06T06:00:34.826Z,98.77387
2022-10-06T06:05:36.575Z,92.43373
2022-10-06T06:10:38.155Z,102.76289
2022-10-06T06:15:39.759Z,148.65116
2022-10-06T06:20:41.369Z,138.93671
2022-10-06T06:25:42.979Z,116.06704
2022-10-06T06:30:44.624Z,119.49858
2022-10-06T06:35:46.267Z,164.78853
2022-10-06T06:40:47.847Z,138.32177
2022-10-06T06:45:49.472Z,121.52161
2022-10-06T06:50:51.118Z,128.43114
2022-10-06T06:55:52.694Z,127.8806
2022-10-06T07:00:54.340Z,172.14815
2022-10-06T07:05:55.999Z,134.71207
2022-10-06T07:10:57.569Z,142.07074
2022-10-06T07:15:59.250Z,132.3792
2022-10-06T07:21:01.070Z,105.25654
2022-10-06T07:26:02.660Z,107.39523
2022-10-06T07:31:04.290Z,94.61125
2022-10-06T07:36:05.909Z,110.48649
2022-10-06T07:41:19.044Z,101.54476
2022-10-06T07:46:21.606Z,99.55556
2022-10-06T07:51:23.187Z,114.16575
2022-10-06T07:56:24.798Z,92.79227
2022-10-06T08:01:26.530Z,90.31829
2022-10-06T08:06:28.137Z,84.63927
2022-10-06T08:11:29.652Z,92.07692
2022-10-06T08:16:31.326Z,88.60094
2022-10-06T08:21:32.940Z,80.58537
2022-10-06T08:26:34.600Z,82.42697
2022-10-06T08:31:36.360Z,88.94118
2022-10-06T08:36:37.954Z,100.743
2022-10-06T08:41:39.551Z,93.87835
2022-10-06T08:46:41.167Z,93.51456
2022-10-06T08:51:42.853Z,88.2623
2022-10-06T08:56:44.501Z,93.51456
2022-10-06T09:01:46.298Z,97.23383
2022-10-06T09:06:47.967Z,89.28302
2022-10-06T09:11:49.632Z,93.51456
2022-10-06T09:16:51.265Z,95.35135
2022-10-06T09:21:53.050Z,94.2439
2022-10-06T09:26:54.698Z,95.72414
2022-10-06T09:31:56.287Z,106.10526
2022-10-06T09:37:01.278Z,120.5043
2022-10-06T09:42:03.853Z,117.03371
2022-10-06T09:47:05.408Z,129.54217
2022-10-06T09:52:06.967Z,113.69697
2022-10-06T09:57:08.597Z,109.5914
2022-10-06T10:02:10.229Z,103.17313
2022-10-06T10:07:11.897Z,117.52113
2022-10-06T10:12:13.511Z,104.83551
2022-10-06T10:17:15.147Z,132.3792
2022-10-06T10:22:16.740Z,109.5914
2022-10-06T10:27:18.371Z,96.47525
2022-10-06T10:32:20.019Z,89.97156
2022-10-06T10:37:21.688Z,88.94118
2022-10-06T10:42:23.316Z,94.61125
2022-10-06T10:47:24.895Z,96.8536
2022-10-06T10:52:26.524Z,93.15254
2022-10-06T10:57:28.122Z,92.79227
2022-10-06T11:02:29.700Z,98.77387
2022-10-06T11:07:31.313Z,92.79227
2022-10-06T11:12:32.900Z,90.31829
2022-10-06T11:17:34.472Z,87.58974
2022-10-06T11:22:36.037Z,84
2022-10-06T11:27:37.608Z,89.97156
2022-10-06T11:32:39.206Z,95.72414
2022-10-06T11:37:40.843Z,84.9611
2022-10-06T11:42:42.458Z,79.98234
2022-10-06T11:47:44.082Z,81.5
2022-10-06T11:52:45.690Z,76.18884
2022-10-06T11:57:47.277Z,73.14046
2022-10-06T12:02:49.022Z,72.87029
2022-10-06T12:07:50.711Z,71.01031
2022-10-06T12:13:06.295Z,71.01031
2022-10-06T12:18:09.002Z,72.87029
2022-10-06T12:23:10.573Z,79.68282
2022-10-06T12:28:12.220Z,89.62648
2022-10-06T12:33:13.828Z,82.11659
2022-10-06T12:38:15.389Z,91.72182
2022-10-06T12:43:17.014Z,81.19376
2022-10-06T12:48:18.877Z,80.88889
2022-10-06T12:53:20.611Z,95.35135
2022-10-06T12:58:22.227Z,96.47525
2022-10-06T13:03:24.169Z,84.9611
2022-10-06T13:08:25.817Z,95.72414
2022-10-06T13:13:27.417Z,88.60094
2022-10-06T13:18:29.032Z,81.5
2022-10-06T13:23:30.685Z,77.91304
2022-10-06T13:28:32.387Z,78.79212
2022-10-06T13:33:34.049Z,80.58537
2022-10-06T13:38:35.661Z,87.25581
2022-10-06T13:43:39.625Z,86.26328
2022-10-06T13:48:41.516Z,79.38462
2022-10-06T13:53:43.129Z,75.34328
2022-10-06T13:58:44.731Z,75.90578
2022-10-06T14:03:46.431Z,81.80761
2022-10-06T14:08:48.048Z,80.88889
2022-10-06T14:13:49.630Z,84.31891
2022-10-06T14:18:51.288Z,81.19376
2022-10-06T14:23:52.956Z,88.94118
2022-10-06T14:28:54.556Z,89.62648
2022-10-06T14:33:56.142Z,86.92343
2022-10-06T14:38:57.714Z,104.41667
2022-10-06T14:43:59.294Z,96.09877
2022-10-06T14:49:00.892Z,84.31891
2022-10-06T14:54:02.490Z,95.35135
2022-10-06T14:59:04.127Z,106.10526
2022-10-06T15:04:05.748Z,102.76289
2022-10-06T15:09:07.360Z,98.38596
2022-10-06T15:14:09.104Z,96.8536
2022-10-06T15:19:10.782Z,109.14745
2022-10-06T15:24:12.358Z,126.78932
2022-10-06T15:29:13.973Z,122.55072
2022-10-06T15:34:15.569Z,121.01149
2022-10-06T15:39:17.136Z,127.33333
2022-10-06T15:44:18.699Z,129.54217
2022-10-06T15:49:20.326Z,138.93671
2022-10-06T15:54:21.967Z,145.96721
2022-10-06T15:59:23.543Z,151.40741
2022-10-06T16:04:25.107Z,154.9589
2022-10-06T16:09:26.703Z,168
2022-10-06T16:14:28.297Z,153.52381
2022-10-06T16:19:29.942Z,175.57895
2022-10-06T16:24:31.522Z,186.51969
2022-10-06T16:29:33.129Z,170.47059
2022-10-06T16:34:34.752Z,164
2022-10-06T16:39:36.328Z,186.51969
2022-10-06T16:44:37.931Z,217.77778
2022-10-06T16:49:39.502Z,200.66667
2022-10-06T16:54:41.106Z,185.56863
2022-10-06T16:59:46.599Z,211.82609
2022-10-06T17:04:48.630Z,206.12766
2022-10-06T17:10:15.292Z,217.77778
2022-10-06T17:15:21.152Z,203.91561
2022-10-06T17:20:22.763Z,216.56637
2022-10-06T17:25:24.442Z,203.91561
2022-10-06T17:30:26.071Z,225.27854
2022-10-06T17:35:27.676Z,244.4878
2022-10-06T17:40:29.270Z,263.17098
2022-10-06T17:45:30.908Z,244.4878
2022-10-06T17:50:32.562Z,248.9505
2022-10-06T17:55:34.148Z,230.51163
2022-10-06T18:00:35.763Z,240.15385
2022-10-06T18:05:37.370Z,264.83333
2022-10-06T18:10:38.943Z,235.94313
2022-10-06T18:15:40.526Z,271.65957
2022-10-06T18:20:42.108Z,214.17544
2022-10-06T18:25:43.702Z,194.4065
2022-10-06T18:30:45.276Z,203.91561
2022-10-06T18:36:14.369Z,256.69036
2022-10-06T18:41:16.784Z,245.96078
2022-10-06T18:46:18.520Z,273.41176
2022-10-06T18:51:20.156Z,296
2022-10-06T18:56:21.812Z,280.61202
2022-10-06T19:01:23.517Z,296
2022-10-06T19:06:25.177Z,306.35294
2022-10-06T19:11:26.798Z,296
2022-10-06T19:16:28.470Z,292.0226
2022-10-06T19:21:30.123Z,286.22222
2022-10-06T19:26:31.769Z,290.06742
2022-10-06T19:31:33.358Z,315.08434
2022-10-06T19:36:34.980Z,248.9505
2022-10-06T19:41:36.607Z,258.28571
2022-10-06T19:46:38.233Z,292.0226
2022-10-06T19:51:39.838Z,233.20188
2022-10-06T19:56:41.424Z,191.38956
2022-10-06T20:01:43.050Z,200.66667
2022-10-06T20:06:44.676Z,219
2022-10-06T20:11:46.308Z,209.51724
2022-10-06T20:16:47.964Z,215.36564
2022-10-06T20:21:49.593Z,176.45283
2022-10-06T20:26:51.259Z,150.02007
2022-10-06T20:31:52.908Z,165.58273
2022-10-06T20:36:56.205Z,164
2022-10-06T20:41:57.927Z,199.60166
2022-10-06T20:46:59.491Z,170.47059
2022-10-06T20:52:01.077Z,164.78853
2022-10-06T20:57:02.781Z,182.75969
2022-10-06T21:02:04.347Z,188.44444
2022-10-06T21:07:06.179Z,182.75969
2022-10-06T21:12:07.791Z,174.71161
2022-10-06T21:17:09.412Z,159.38462
2022-10-06T21:22:10.984Z,181.83784
2022-10-06T21:27:12.591Z,189.41833
2022-10-06T21:32:14.194Z,168.81752
2022-10-06T21:37:15.798Z,161.66784
2022-10-06T21:42:17.407Z,154.23891
2022-10-06T21:47:19.091Z,154.23891
2022-10-06T21:52:20.710Z,163.21708
2022-10-06T21:57:22.296Z,157.14879
2022-10-06T22:02:23.986Z,195.42857
2022-10-06T22:07:25.690Z,166.38267
2022-10-06T22:12:27.275Z,122.55072
2022-10-06T22:17:28.872Z,125.17647
2022-10-06T22:22:30.515Z,138.32177
2022-10-06T22:27:32.076Z,121.52161
2022-10-06T22:32:33.683Z,114.16575
2022-10-06T22:37:35.294Z,114.63712
2022-10-06T22:42:36.891Z,119
2022-10-06T22:47:38.446Z,126.24852
2022-10-06T22:52:40.198Z,128.43114
2022-10-06T22:57:42.176Z,138.32177
2022-10-06T23:02:44.031Z,141.4359
2022-10-06T23:07:46.057Z,144.65147
2022-10-06T23:12:47.984Z,145.96721
2022-10-06T23:17:49.553Z,138.93671
2022-10-06T23:22:51.197Z,126.24852
2022-10-06T23:27:52.785Z,118.0113
2022-10-06T23:32:54.368Z,124.64516
2022-10-06T23:37:56.038Z,104.83551
2022-10-06T23:42:57.748Z,80.28319
2022-10-06T23:47:59.353Z,98.38596
2022-10-06T23:53:00.925Z,149.33333
2022-10-06T23:58:02.559Z,130.10272
